• Join FlightAware (Why Join?)
  • Login
  • US Flag 
02:11PM EDT


 

Airport Tracker/Info


-or-


 

Live Flight TrackerFlight Track Log ✈ UPS1121 ✈ 07-Aug-2013 ✈ KALB - KBDL

Flight Track Log - Related Links

Times and Time Zones

All times are in EDT time to prevent confusion due to time zone crossing. See the UPS1121 flight status page for this flight to view local times or setup timezone preferences in your user account.

Time Position Orientation Groundspeed Altitude Reporting Facility
EDT Latitude Longitude Course Direction KTS MPH feet Rate Location/Type
08:35PM 42.7381 -73.8083 145° Southeast 133 153 1,700  Level Boston Center
08:37PM 42.6783 -73.7506 145° Southeast 201 231 4,800 2,460 Climbing Boston Center
08:38PM 42.6272 -73.6733 132° Southeast 253 291 8,200 2,940 Climbing Boston Center
08:39PM 42.5800 -73.5961 130° Southeast 289 333 10,800 1,380 Climbing Boston Center
08:40PM 42.5144 -73.4850 129° Southeast 327 376 11,000  Climbing Boston Center
08:41PM 42.4569 -73.3969 131° Southeast 345 397 10,900 60 Descending Boston Center
08:42PM 42.4178 -73.3428 134° Southeast 341 392 11,100 180 Climbing Boston Center
08:42PM 42.3825 -73.2944 135° Southeast 341 392 11,100  Level Boston Center
08:43PM 42.3208 -73.2039 133° Southeast 340 391 11,100 -360 Level Boston Center
08:44PM 42.2733 -73.1192 127° Southeast 311 358 10,400 -1,320 Descending Boston Center
08:45PM 42.2531 -73.0067 104° East 301 346 8,500 -1,500 Descending Boston Center
08:46PM 42.2328 -72.8914 103° East 295 339 7,200 -960 Descending Boston Center
08:47PM 42.2164 -72.7933 103° East 254 292 6,500 -900 Descending Boston Center
08:48PM 42.2022 -72.7036 102° East 231 266 5,500 -960 Descending Boston Center
08:49PM 42.1669 -72.6333 124° Southeast 208 239 4,600 -780 Descending Boston Center
08:50PM 42.1253 -72.5828 138° Southeast 205 236 4,000 -600 Descending Boston Center
08:51PM 42.0753 -72.5575 159° South 173 199 3,400 -720 Descending Boston Center
08:52PM 42.0314 -72.5686 191° South 174 200 2,600 -900 Descending Boston Center
08:53PM 42.0000 -72.6050 221° Southwest 147 169 1,700 -840 Descending Boston Center
08:54PM 41.9750 -72.6383 225° Southwest 102 117 1,000 -660 Descending Boston Center
08:55PM 41.9522 -72.6661 222° Southwest 107 123 400 -600 Descending Boston Center